Yeso, New Mexico
Current Conditions -  °F | °C
As of 8:56 PM on Sunday 19 Oct 2014 (Local Time) from K4MR Reporting Station
Clear Clear  
Wind Chill: 54°   Ceiling: Unl
Heat Index: 54°   Visibility: 10mi
Dew Point: 49°   Wind: 8mph
Humidity: 83%   Direction: 140°SE
Pressure: 30.13"   Gusts: NA
Location:  34.44°N, 104.61°W
Report Text: K4MR 200256Z AUTO 14007KT 10SM CLR 12/09 A3013 RMK AO2 SLP173 T01210093 52009
Loading
Personal Weather Stations






























Interactive Weather Map
Tropical Storm Tracking
New forecast layout! Learn more

10-Day Weather Forecast

Advertisements
Track Severe Weather on mobile